createdAt,value
2019-03-19T00:00:13.558Z,91.40
2019-03-19T00:02:41.976Z,91.90
2019-03-19T00:05:10.474Z,91.90
2019-03-19T00:07:39.225Z,91.90
2019-03-19T00:10:09.093Z,91.90
2019-03-19T00:12:37.846Z,92.00
2019-03-19T00:15:09.009Z,91.90
2019-03-19T00:17:37.440Z,92.00
2019-03-19T00:20:09.273Z,92.70
2019-03-19T00:22:37.706Z,92.10
2019-03-19T00:25:07.064Z,92.20
2019-03-19T00:27:35.524Z,92.00
2019-03-19T00:30:05.800Z,92.20
2019-03-19T00:32:34.224Z,92.20
2019-03-19T00:35:02.928Z,91.50
2019-03-19T00:37:31.447Z,92.20
2019-03-19T00:40:00.147Z,92.40
2019-03-19T00:42:28.578Z,92.30
2019-03-19T00:44:56.994Z,92.10
2019-03-19T00:47:25.425Z,92.00
2019-03-19T00:49:53.852Z,92.00
2019-03-19T00:52:22.284Z,91.90
2019-03-19T00:54:50.704Z,91.90
2019-03-19T00:57:19.140Z,91.70
2019-03-19T00:59:47.568Z,91.80
2019-03-19T01:02:16.280Z,91.60
2019-03-19T01:04:44.708Z,92.00
2019-03-19T01:07:13.145Z,92.00
2019-03-19T01:09:41.564Z,92.00
2019-03-19T01:12:10.004Z,92.10
2019-03-19T01:14:38.424Z,92.00
2019-03-19T01:17:07.180Z,92.00
2019-03-19T01:19:35.604Z,92.00
2019-03-19T01:22:04.100Z,92.20
2019-03-19T01:24:32.539Z,91.90
2019-03-19T01:27:00.959Z,91.90
2019-03-19T01:29:29.393Z,92.40
2019-03-19T01:31:57.817Z,92.20
2019-03-19T01:34:26.272Z,92.20
2019-03-19T01:36:54.724Z,92.00
2019-03-19T01:39:23.413Z,92.00
2019-03-19T01:41:51.938Z,92.20
2019-03-19T01:44:20.445Z,91.60
2019-03-19T01:46:48.896Z,91.90
2019-03-19T01:49:17.330Z,92.30
2019-03-19T01:51:46.028Z,92.20
2019-03-19T01:54:14.472Z,92.30
2019-03-19T01:56:42.901Z,92.00
2019-03-19T01:59:11.680Z,92.20
2019-03-19T02:01:40.104Z,92.30
2019-03-19T02:04:08.544Z,92.10
2019-03-19T02:06:37.233Z,92.00
2019-03-19T02:09:07.912Z,92.10
2019-03-19T02:11:38.341Z,92.20
2019-03-19T02:14:06.496Z,92.30
2019-03-19T02:16:34.989Z,92.20
2019-03-19T02:19:03.420Z,92.20
2019-03-19T02:21:32.122Z,92.10
2019-03-19T02:24:00.581Z,92.30
2019-03-19T02:26:29.020Z,92.50
2019-03-19T02:28:57.469Z,92.30
2019-03-19T02:31:25.899Z,92.10
2019-03-19T02:33:54.325Z,92.20
2019-03-19T02:36:22.761Z,92.20
2019-03-19T02:38:51.202Z,92.10
2019-03-19T02:41:19.666Z,92.20
2019-03-19T02:43:48.142Z,92.20
2019-03-19T02:46:16.564Z,92.30
2019-03-19T02:48:45.015Z,92.40
2019-03-19T02:51:13.430Z,92.60
2019-03-19T02:53:41.878Z,92.60
2019-03-19T02:56:33.311Z,92.60
2019-03-19T02:58:59.799Z,92.60
2019-03-19T03:01:28.231Z,92.90
2019-03-19T03:03:56.665Z,92.30
2019-03-19T03:06:25.090Z,92.00
2019-03-19T03:08:53.545Z,92.20
2019-03-19T03:11:21.974Z,92.60
2019-03-19T03:13:50.423Z,92.80
2019-03-19T03:16:18.859Z,92.70
2019-03-19T03:18:47.446Z,92.80
2019-03-19T03:21:15.881Z,92.90
2019-03-19T03:23:44.350Z,93.00
2019-03-19T03:26:12.830Z,92.90
2019-03-19T03:28:41.277Z,92.80
2019-03-19T03:31:09.699Z,92.80
2019-03-19T03:33:38.989Z,92.60
2019-03-19T03:36:07.406Z,92.60
2019-03-19T03:38:35.842Z,92.60
2019-03-19T03:41:05.225Z,92.60
2019-03-19T03:43:33.661Z,92.80
2019-03-19T03:46:02.110Z,92.90
2019-03-19T03:48:30.614Z,92.90
2019-03-19T03:50:59.067Z,93.00
2019-03-19T03:53:27.502Z,92.90
2019-03-19T03:55:55.946Z,92.70
2019-03-19T03:58:24.373Z,92.60
2019-03-19T04:00:52.842Z,92.90
2019-03-19T04:03:21.338Z,92.90
2019-03-19T04:05:50.171Z,92.60
2019-03-19T04:08:18.602Z,92.60
2019-03-19T04:10:47.045Z,92.80
2019-03-19T04:13:15.482Z,93.00
2019-03-19T04:15:44.094Z,93.00
2019-03-19T04:18:12.525Z,92.80
2019-03-19T04:20:40.969Z,92.80
2019-03-19T04:23:09.388Z,92.70
2019-03-19T04:25:37.909Z,92.60
2019-03-19T04:28:06.334Z,92.60
2019-03-19T04:30:34.779Z,92.60
2019-03-19T04:33:03.277Z,92.50
2019-03-19T04:35:31.726Z,92.60
2019-03-19T04:38:00.153Z,92.20
2019-03-19T04:40:28.606Z,92.20
2019-03-19T04:42:57.038Z,92.30
2019-03-19T04:45:25.477Z,92.50
2019-03-19T04:47:53.900Z,92.50
2019-03-19T04:50:22.373Z,92.60
2019-03-19T04:52:50.829Z,92.70
2019-03-19T04:55:19.292Z,92.60
2019-03-19T04:57:47.721Z,92.90
2019-03-19T05:00:20.250Z,93.10
2019-03-19T05:02:48.686Z,93.20
2019-03-19T05:05:17.266Z,93.10
2019-03-19T05:07:45.712Z,93.20
2019-03-19T05:10:18.059Z,92.80
2019-03-19T05:12:46.484Z,93.20
2019-03-19T05:15:15.365Z,93.10
2019-03-19T05:17:43.795Z,93.00
2019-03-19T05:20:13.182Z,93.20
2019-03-19T05:22:41.609Z,93.30
2019-03-19T05:25:10.851Z,93.20
2019-03-19T05:27:39.381Z,93.20
2019-03-19T05:30:11.037Z,93.30
2019-03-19T05:32:39.534Z,93.20
2019-03-19T05:35:09.315Z,93.20
2019-03-19T05:37:37.762Z,93.20
2019-03-19T05:40:11.577Z,92.80
2019-03-19T05:42:40.161Z,92.90
2019-03-19T05:45:11.634Z,93.00
2019-03-19T05:47:40.620Z,92.60
2019-03-19T05:50:25.063Z,92.70
2019-03-19T05:52:53.492Z,93.00
2019-03-19T05:55:21.958Z,93.10
2019-03-19T05:57:50.715Z,93.10
2019-03-19T06:00:21.497Z,93.20
2019-03-19T06:02:50.295Z,93.10
2019-03-19T06:05:20.903Z,93.10
2019-03-19T06:07:48.970Z,93.10
2019-03-19T06:10:17.464Z,92.90
2019-03-19T06:12:45.906Z,92.90
2019-03-19T06:15:17.709Z,92.90
2019-03-19T06:17:46.171Z,92.80
2019-03-19T06:20:15.982Z,92.80
2019-03-19T06:22:44.749Z,92.90
2019-03-19T06:25:13.862Z,92.80
2019-03-19T06:27:42.378Z,92.70
2019-03-19T06:30:18.780Z,92.70
2019-03-19T06:32:47.214Z,92.50
2019-03-19T06:35:16.510Z,92.40
2019-03-19T06:37:45.109Z,92.30
2019-03-19T06:40:17.925Z,92.30
2019-03-19T06:42:46.671Z,92.10
2019-03-19T06:45:16.173Z,92.00
2019-03-19T06:47:44.673Z,91.90
2019-03-19T06:50:15.120Z,91.90
2019-03-19T06:52:43.870Z,91.70
2019-03-19T06:55:16.567Z,91.50
2019-03-19T06:57:45.023Z,91.20
2019-03-19T07:00:23.574Z,91.00
2019-03-19T07:02:52.010Z,90.60
2019-03-19T07:05:21.490Z,90.30
2019-03-19T07:07:50.076Z,90.20
2019-03-19T07:10:19.368Z,90.70
2019-03-19T07:12:48.214Z,90.60
2019-03-19T07:15:23.393Z,90.40
2019-03-19T07:17:51.894Z,90.40
2019-03-19T07:20:26.937Z,89.40
2019-03-19T07:22:55.382Z,89.20
2019-03-19T07:25:23.806Z,89.00
2019-03-19T07:27:52.521Z,88.30
2019-03-19T07:30:24.812Z,87.90
2019-03-19T07:32:53.296Z,87.90
2019-03-19T07:35:21.749Z,87.80
2019-03-19T07:37:50.541Z,87.90
2019-03-19T07:40:19.281Z,88.10
2019-03-19T07:42:47.969Z,88.40
2019-03-19T07:45:21.798Z,88.40
2019-03-19T07:47:50.234Z,88.90
2019-03-19T07:50:20.670Z,87.70
2019-03-19T07:52:49.117Z,87.70
2019-03-19T07:55:17.546Z,87.60
2019-03-19T07:57:46.153Z,87.70
2019-03-19T08:00:18.699Z,87.00
2019-03-19T08:02:47.141Z,85.50
2019-03-19T08:05:16.022Z,84.60
2019-03-19T08:07:44.918Z,86.80
2019-03-19T08:10:15.754Z,86.10
2019-03-19T08:12:44.207Z,83.70
2019-03-19T08:15:22.128Z,83.50
2019-03-19T08:17:50.637Z,84.50
2019-03-19T08:20:19.474Z,85.30
2019-03-19T08:22:47.918Z,84.50
2019-03-19T08:25:17.083Z,85.20
2019-03-19T08:27:45.877Z,83.60
2019-03-19T08:30:19.693Z,83.40
2019-03-19T08:32:48.202Z,82.80
2019-03-19T08:35:16.698Z,83.30
2019-03-19T08:37:45.148Z,83.30
2019-03-19T08:40:15.490Z,83.10
2019-03-19T08:42:44.001Z,82.30
2019-03-19T08:45:14.838Z,82.20
2019-03-19T08:47:43.285Z,82.60
2019-03-19T08:50:20.422Z,82.60
2019-03-19T08:52:48.885Z,82.30
2019-03-19T08:55:17.418Z,82.60
2019-03-19T08:57:45.922Z,81.90
2019-03-19T09:00:35.180Z,82.80
2019-03-19T09:03:03.965Z,82.60
2019-03-19T09:05:32.397Z,81.70
2019-03-19T09:08:00.841Z,82.20
2019-03-19T09:10:29.275Z,81.70
2019-03-19T09:12:57.725Z,82.90
2019-03-19T09:15:27.597Z,81.70
2019-03-19T09:17:56.034Z,81.60
2019-03-19T09:20:24.511Z,80.80
2019-03-19T09:22:52.989Z,81.50
2019-03-19T09:25:21.723Z,80.20
2019-03-19T09:27:50.157Z,81.60
2019-03-19T09:30:23.281Z,82.20
2019-03-19T09:32:51.715Z,78.60
2019-03-19T09:35:20.150Z,80.70
2019-03-19T09:37:57.781Z,76.60
2019-03-19T09:40:19.660Z,76.10
2019-03-19T09:43:24.842Z,76.20
2019-03-19T09:45:53.265Z,77.60
2019-03-19T09:48:21.769Z,77.60
2019-03-19T09:50:50.214Z,75.90
2019-03-19T09:53:18.891Z,80.60
2019-03-19T09:55:47.477Z,77.30
2019-03-19T09:58:16.058Z,76.10
2019-03-19T10:00:44.558Z,75.50
2019-03-19T10:03:13.004Z,75.90
2019-03-19T10:05:41.437Z,75.50
2019-03-19T10:08:09.890Z,76.00
2019-03-19T10:10:38.367Z,75.70
2019-03-19T10:13:06.943Z,76.10
2019-03-19T10:15:35.374Z,76.40
2019-03-19T10:18:03.985Z,74.80
2019-03-19T10:20:32.422Z,75.70
2019-03-19T10:23:00.929Z,71.80
2019-03-19T10:25:29.369Z,75.30
2019-03-19T10:27:57.798Z,73.90
2019-03-19T10:30:26.296Z,72.50
2019-03-19T10:32:54.726Z,71.90
2019-03-19T10:35:23.166Z,72.90
2019-03-19T10:37:51.943Z,72.40
2019-03-19T10:40:21.490Z,71.60
2019-03-19T10:43:09.251Z,73.60
2019-03-19T10:45:37.989Z,73.00
2019-03-19T10:48:07.066Z,74.60
2019-03-19T10:50:35.488Z,73.80
2019-03-19T10:53:04.042Z,73.60
2019-03-19T10:55:32.806Z,72.00
2019-03-19T10:58:10.675Z,73.40
2019-03-19T11:00:31.445Z,73.20
2019-03-19T11:02:59.892Z,72.20
2019-03-19T11:05:28.338Z,69.70
2019-03-19T11:07:56.828Z,70.00
2019-03-19T11:10:25.547Z,68.40
2019-03-19T11:12:53.973Z,70.50
2019-03-19T11:15:23.570Z,69.70
2019-03-19T11:17:52.254Z,70.00
2019-03-19T11:20:21.081Z,69.40
2019-03-19T11:22:49.574Z,69.70
2019-03-19T11:25:28.414Z,70.70
2019-03-19T11:27:56.849Z,71.10
2019-03-19T11:30:52.213Z,70.50
2019-03-19T11:33:20.657Z,70.40
2019-03-19T11:35:49.104Z,69.60
2019-03-19T11:38:17.539Z,68.70
2019-03-19T11:40:45.982Z,69.70
2019-03-19T11:43:14.411Z,70.40
2019-03-19T11:45:42.973Z,71.70
2019-03-19T11:48:11.421Z,70.50
2019-03-19T11:50:39.870Z,72.90
2019-03-19T11:53:08.441Z,72.20
2019-03-19T11:55:36.885Z,72.50
2019-03-19T11:58:05.378Z,72.50
2019-03-19T12:00:44.533Z,72.70
2019-03-19T12:03:16.396Z,71.90
2019-03-19T12:05:43.203Z,73.00
2019-03-19T12:08:11.634Z,72.40
2019-03-19T12:10:40.420Z,72.10
2019-03-19T12:13:08.851Z,71.10
2019-03-19T12:15:37.616Z,70.60
2019-03-19T12:18:06.614Z,72.10
2019-03-19T12:20:35.478Z,70.10
2019-03-19T12:23:04.174Z,70.30
2019-03-19T12:25:32.609Z,70.40
2019-03-19T12:28:01.033Z,69.40
2019-03-19T12:30:29.457Z,70.80
2019-03-19T12:32:57.904Z,69.30
2019-03-19T12:35:26.335Z,69.40
2019-03-19T12:37:55.038Z,69.60
2019-03-19T12:40:24.296Z,68.20
2019-03-19T12:42:53.043Z,66.10
2019-03-19T12:45:22.509Z,63.50
2019-03-19T12:47:51.040Z,62.50
2019-03-19T12:50:26.139Z,62.00
2019-03-19T12:52:54.606Z,62.90
2019-03-19T12:55:23.094Z,63.00
2019-03-19T12:57:51.617Z,61.40
2019-03-19T13:00:32.998Z,61.10
2019-03-19T13:02:52.725Z,60.80
2019-03-19T13:05:22.539Z,61.50
2019-03-19T13:07:51.665Z,61.50
2019-03-19T13:10:21.029Z,59.60
2019-03-19T13:12:49.723Z,61.00
2019-03-19T13:15:21.403Z,60.90
2019-03-19T13:17:50.022Z,62.30
2019-03-19T13:20:19.397Z,60.80
2019-03-19T13:22:47.831Z,61.60
2019-03-19T13:25:19.328Z,61.00
2019-03-19T13:27:47.778Z,62.30
2019-03-19T13:30:19.278Z,59.20
2019-03-19T13:32:47.747Z,58.50
2019-03-19T13:35:16.269Z,59.80
2019-03-19T13:37:44.761Z,58.10
2019-03-19T13:40:15.265Z,58.00
2019-03-19T13:42:44.026Z,57.60
2019-03-19T13:45:14.398Z,57.00
2019-03-19T13:47:42.841Z,56.20
2019-03-19T13:50:15.910Z,55.40
2019-03-19T13:52:44.607Z,55.90
2019-03-19T13:55:18.125Z,56.40
2019-03-19T13:57:46.584Z,56.20
2019-03-19T14:00:16.268Z,55.00
2019-03-19T14:02:44.771Z,57.10
2019-03-19T14:05:17.220Z,57.20
2019-03-19T14:07:45.808Z,55.70
2019-03-19T14:10:20.802Z,57.00
2019-03-19T14:12:49.304Z,59.00
2019-03-19T14:15:38.602Z,56.30
2019-03-19T14:18:07.037Z,56.60
2019-03-19T14:20:35.468Z,55.70
2019-03-19T14:23:03.974Z,56.10
2019-03-19T14:25:32.401Z,56.60
2019-03-19T14:28:01.149Z,56.30
2019-03-19T14:30:29.637Z,56.90
2019-03-19T14:32:58.077Z,57.30
2019-03-19T14:35:36.629Z,59.90
2019-03-19T14:37:56.665Z,60.40
2019-03-19T14:40:26.127Z,61.30
2019-03-19T14:42:54.573Z,61.10
2019-03-19T14:45:22.997Z,60.10
2019-03-19T14:47:51.458Z,59.70
2019-03-19T14:50:21.522Z,60.00
2019-03-19T14:52:49.978Z,60.20
2019-03-19T14:55:18.408Z,59.40
2019-03-19T14:57:46.854Z,60.00
2019-03-19T15:00:19.387Z,61.20
2019-03-19T15:02:48.180Z,60.60
2019-03-19T15:05:16.674Z,60.00
2019-03-19T15:07:45.137Z,58.80
2019-03-19T15:10:19.284Z,59.00
2019-03-19T15:12:48.146Z,60.60
2019-03-19T15:15:19.640Z,61.00
2019-03-19T15:17:48.103Z,61.10
2019-03-19T15:20:26.766Z,61.40
2019-03-19T15:22:55.762Z,60.30
2019-03-19T15:25:24.658Z,61.50
2019-03-19T15:27:53.737Z,61.90
2019-03-19T15:30:23.058Z,60.20
2019-03-19T15:32:53.881Z,60.70
2019-03-19T15:35:22.386Z,60.90
2019-03-19T15:37:51.141Z,61.30
2019-03-19T15:40:20.113Z,60.40
2019-03-19T15:42:48.548Z,61.20
2019-03-19T15:45:23.040Z,62.40
2019-03-19T15:47:51.492Z,62.60
2019-03-19T15:50:20.210Z,62.60
2019-03-19T15:52:48.660Z,61.70
2019-03-19T15:55:17.125Z,61.40
2019-03-19T15:57:45.700Z,61.90
2019-03-19T16:00:21.230Z,62.40
2019-03-19T16:02:50.002Z,62.30
2019-03-19T16:05:18.445Z,62.60
2019-03-19T16:07:46.888Z,63.40
2019-03-19T16:10:18.088Z,63.30
2019-03-19T16:12:46.586Z,63.00
2019-03-19T16:15:16.228Z,63.80
2019-03-19T16:17:44.727Z,64.10
2019-03-19T16:20:39.986Z,64.40
2019-03-19T16:23:08.406Z,64.30
2019-03-19T16:25:36.849Z,64.40
2019-03-19T16:28:05.344Z,64.20
2019-03-19T16:30:33.877Z,63.90
2019-03-19T16:33:02.305Z,64.70
2019-03-19T16:35:30.742Z,64.10
2019-03-19T16:37:59.247Z,64.80
2019-03-19T16:40:27.705Z,64.60
2019-03-19T16:42:56.133Z,64.50
2019-03-19T16:45:24.568Z,64.80
2019-03-19T16:47:53.001Z,65.40
2019-03-19T16:50:22.555Z,65.30
2019-03-19T16:52:51.048Z,65.50
2019-03-19T16:55:21.400Z,65.90
2019-03-19T16:57:49.827Z,66.40
2019-03-19T17:00:20.769Z,66.70
2019-03-19T17:02:49.206Z,66.80
2019-03-19T17:05:18.083Z,66.80
2019-03-19T17:07:46.781Z,67.40
2019-03-19T17:10:17.079Z,66.90
2019-03-19T17:12:45.501Z,68.00
2019-03-19T17:15:15.894Z,67.80
2019-03-19T17:17:44.665Z,68.20
2019-03-19T17:20:17.408Z,68.40
2019-03-19T17:22:46.105Z,68.60
2019-03-19T17:25:19.773Z,68.80
2019-03-19T17:27:48.269Z,69.00
2019-03-19T17:30:26.747Z,69.80
2019-03-19T17:32:55.174Z,69.60
2019-03-19T17:35:23.604Z,69.70
2019-03-19T17:37:52.346Z,69.90
2019-03-19T17:40:20.814Z,70.00
2019-03-19T17:42:49.295Z,70.10
2019-03-19T17:45:17.874Z,70.30
2019-03-19T17:47:46.476Z,70.90
2019-03-19T17:50:16.849Z,70.80
2019-03-19T17:53:04.685Z,71.00
2019-03-19T17:55:33.120Z,71.20
2019-03-19T17:58:01.545Z,71.80
2019-03-19T18:00:46.968Z,71.50
2019-03-19T18:03:15.398Z,71.60
2019-03-19T18:05:43.848Z,72.00
2019-03-19T18:08:12.273Z,72.00
2019-03-19T18:10:40.732Z,72.30
2019-03-19T18:13:09.165Z,72.60
2019-03-19T18:15:37.674Z,72.80
2019-03-19T18:18:06.108Z,73.00
2019-03-19T18:20:34.548Z,73.30
2019-03-19T18:23:02.979Z,73.40
2019-03-19T18:25:31.400Z,74.00
2019-03-19T18:27:59.836Z,73.90
2019-03-19T18:30:28.569Z,74.50
2019-03-19T18:32:57.024Z,74.60
2019-03-19T18:35:25.506Z,75.10
2019-03-19T18:37:53.936Z,75.20
2019-03-19T18:40:22.353Z,75.20
2019-03-19T18:42:50.800Z,75.50
2019-03-19T18:45:21.509Z,76.20
2019-03-19T18:47:50.026Z,76.70
2019-03-19T18:50:19.378Z,77.40
2019-03-19T18:52:48.145Z,78.00
2019-03-19T18:55:17.002Z,76.70
2019-03-19T18:57:45.572Z,77.40
2019-03-19T19:00:21.109Z,77.10
2019-03-19T19:02:50.992Z,78.00
2019-03-19T19:05:24.261Z,78.40
2019-03-19T19:07:52.705Z,78.60
2019-03-19T19:10:21.738Z,78.60
2019-03-19T19:12:50.427Z,78.50
2019-03-19T19:15:22.976Z,78.60
2019-03-19T19:17:51.420Z,78.90
2019-03-19T19:20:19.980Z,78.40
2019-03-19T19:22:48.716Z,79.00
2019-03-19T19:25:19.453Z,80.10
2019-03-19T19:27:47.894Z,80.40
2019-03-19T19:30:28.185Z,80.50
2019-03-19T19:33:01.847Z,80.80
2019-03-19T19:35:26.784Z,80.70
2019-03-19T19:37:55.229Z,81.00
2019-03-19T19:40:23.658Z,80.80
2019-03-19T19:42:52.117Z,81.00
2019-03-19T19:45:20.925Z,80.70
2019-03-19T19:47:49.364Z,80.50
2019-03-19T19:50:24.145Z,81.50
2019-03-19T19:52:52.602Z,81.80
2019-03-19T19:55:21.057Z,81.40
2019-03-19T19:57:49.786Z,81.90
2019-03-19T20:00:19.173Z,82.30
2019-03-19T20:02:47.703Z,83.00
2019-03-19T20:05:16.240Z,82.70
2019-03-19T20:07:45.045Z,82.60
2019-03-19T20:10:21.629Z,83.20
2019-03-19T20:12:50.061Z,83.50
2019-03-19T20:15:18.569Z,84.60
2019-03-19T20:17:47.022Z,84.50
2019-03-19T20:20:42.057Z,84.00
2019-03-19T20:23:10.522Z,83.80
2019-03-19T20:25:38.986Z,83.80
2019-03-19T20:28:07.417Z,83.50
2019-03-19T20:30:36.167Z,83.40
2019-03-19T20:33:05.263Z,83.80
2019-03-19T20:35:33.691Z,83.70
2019-03-19T20:38:02.128Z,84.60
2019-03-19T20:40:30.562Z,84.10
2019-03-19T20:42:59.700Z,84.10
2019-03-19T20:45:28.977Z,84.40
2019-03-19T20:47:57.694Z,84.90
2019-03-19T20:50:30.660Z,84.40
2019-03-19T20:52:59.229Z,84.40
2019-03-19T20:55:28.070Z,84.70
2019-03-19T20:57:56.569Z,84.60
2019-03-19T21:00:25.310Z,84.30
2019-03-19T21:02:53.807Z,84.30
2019-03-19T21:05:22.242Z,84.40
2019-03-19T21:08:01.435Z,84.90
2019-03-19T21:10:23.008Z,84.90
2019-03-19T21:12:51.586Z,85.30
2019-03-19T21:15:24.810Z,85.40
2019-03-19T21:17:53.309Z,85.60
2019-03-19T21:20:21.781Z,84.90
2019-03-19T21:22:50.257Z,84.80
2019-03-19T21:25:18.761Z,84.40
2019-03-19T21:27:47.470Z,84.30
2019-03-19T21:30:18.730Z,84.50
2019-03-19T21:32:47.208Z,85.00
2019-03-19T21:35:18.537Z,85.50
2019-03-19T21:37:47.076Z,85.30
2019-03-19T21:40:15.684Z,85.30
2019-03-19T21:42:44.158Z,85.40
2019-03-19T21:45:14.814Z,84.50
2019-03-19T21:47:43.258Z,85.20
2019-03-19T21:50:42.529Z,86.00
2019-03-19T21:53:10.961Z,86.20
2019-03-19T21:55:39.390Z,85.80
2019-03-19T21:58:07.970Z,86.20
2019-03-19T22:00:36.421Z,86.20
2019-03-19T22:03:04.934Z,86.10
2019-03-19T22:05:33.459Z,86.20
2019-03-19T22:08:01.989Z,86.80
2019-03-19T22:10:30.438Z,85.90
2019-03-19T22:12:58.869Z,86.30
2019-03-19T22:15:27.474Z,87.10
2019-03-19T22:17:55.914Z,86.40
2019-03-19T22:20:24.373Z,85.90
2019-03-19T22:22:52.865Z,86.20
2019-03-19T22:25:21.296Z,85.90
2019-03-19T22:27:49.745Z,85.80
2019-03-19T22:30:21.778Z,85.60
2019-03-19T22:32:49.424Z,85.80
2019-03-19T22:35:17.910Z,87.90
2019-03-19T22:37:46.338Z,85.00
2019-03-19T22:40:18.119Z,84.90
2019-03-19T22:42:46.695Z,86.10
2019-03-19T22:45:18.791Z,86.50
2019-03-19T22:47:47.349Z,86.30
2019-03-19T22:50:19.515Z,86.80
2019-03-19T22:52:48.330Z,87.30
2019-03-19T22:55:28.138Z,87.20
2019-03-19T22:57:47.227Z,86.50
2019-03-19T23:00:27.713Z,87.20
2019-03-19T23:02:56.156Z,87.00
2019-03-19T23:05:24.599Z,87.10
2019-03-19T23:07:53.355Z,87.80
2019-03-19T23:10:22.215Z,86.90
2019-03-19T23:12:50.656Z,86.90
2019-03-19T23:15:19.169Z,87.00
2019-03-19T23:17:47.601Z,87.40
2019-03-19T23:20:17.158Z,87.60
2019-03-19T23:22:45.885Z,87.60
2019-03-19T23:25:14.394Z,87.80
2019-03-19T23:27:42.829Z,87.60
2019-03-19T23:30:14.346Z,87.10
2019-03-19T23:32:42.788Z,87.40
2019-03-19T23:35:11.386Z,87.00
2019-03-19T23:37:39.864Z,86.90
2019-03-19T23:40:10.809Z,87.30
2019-03-19T23:42:39.569Z,87.20
2019-03-19T23:45:12.310Z,87.20
2019-03-19T23:47:40.744Z,86.80
2019-03-19T23:50:14.034Z,87.00
2019-03-19T23:52:42.721Z,87.30
2019-03-19T23:55:11.712Z,87.40
2019-03-19T23:57:40.145Z,87.20
